createdAt,value
2022-09-22T00:01:27.013Z,9.50
2022-09-22T00:04:03.634Z,9.50
2022-09-22T00:06:37.312Z,9.50
2022-09-22T00:09:05.796Z,9.50
2022-09-22T00:11:36.887Z,9.40
2022-09-22T00:14:13.468Z,9.40
2022-09-22T00:16:42.440Z,9.40
2022-09-22T00:19:12.684Z,9.30
2022-09-22T00:21:39.845Z,9.30
2022-09-22T00:24:08.105Z,9.20
2022-09-22T00:26:36.825Z,9.20
2022-09-22T00:29:05.258Z,9.20
2022-09-22T00:31:32.017Z,9.20
2022-09-22T00:33:58.793Z,9.10
2022-09-22T00:36:27.903Z,9.10
2022-09-22T00:38:56.932Z,9.10
2022-09-22T00:41:31.210Z,9.00
2022-09-22T00:44:34.841Z,9.00
2022-09-22T00:47:20.515Z,9.10
2022-09-22T00:50:08.812Z,9.00
2022-09-22T00:52:44.840Z,9.00
2022-09-22T00:55:53.601Z,9.10
2022-09-22T00:58:27.870Z,9.10
2022-09-22T01:00:55.473Z,9.10
2022-09-22T01:03:27.609Z,9.10
2022-09-22T01:06:01.123Z,9.10
2022-09-22T01:08:29.786Z,9.10
2022-09-22T01:10:57.818Z,9.10
2022-09-22T01:13:31.212Z,9.10
2022-09-22T01:16:01.168Z,9.10
2022-09-22T01:18:40.194Z,9.10
2022-09-22T01:21:34.165Z,9.10
2022-09-22T01:24:16.332Z,9.10
2022-09-22T01:27:14.222Z,9.00
2022-09-22T01:30:11.860Z,9.00
2022-09-22T01:32:44.403Z,9.00
2022-09-22T01:35:29.206Z,9.00
2022-09-22T01:38:31.480Z,8.90
2022-09-22T01:41:07.651Z,8.90
2022-09-22T01:43:51.354Z,8.90
2022-09-22T01:46:32.988Z,8.90
2022-09-22T01:49:05.731Z,8.80
2022-09-22T01:51:43.238Z,8.80
2022-09-22T01:54:24.819Z,8.80
2022-09-22T01:56:57.341Z,8.70
2022-09-22T01:59:28.385Z,8.70
2022-09-22T02:01:57.214Z,8.70
2022-09-22T02:04:31.487Z,8.70
2022-09-22T02:07:02.490Z,8.60
2022-09-22T02:09:31.080Z,8.60
2022-09-22T02:11:59.136Z,8.60
2022-09-22T02:14:26.767Z,8.60
2022-09-22T02:16:54.342Z,8.60
2022-09-22T02:19:29.716Z,8.60
2022-09-22T02:21:56.728Z,8.60
2022-09-22T02:24:40.208Z,8.60
2022-09-22T02:27:36.456Z,8.60
2022-09-22T02:30:10.356Z,8.60
2022-09-22T02:32:39.988Z,8.60
2022-09-22T02:35:08.805Z,8.60
2022-09-22T02:38:02.311Z,8.60
2022-09-22T02:40:38.017Z,8.50
2022-09-22T02:43:17.873Z,8.60
2022-09-22T02:45:59.149Z,8.50
2022-09-22T02:48:54.783Z,8.50
2022-09-22T02:51:21.881Z,8.50
2022-09-22T02:53:48.630Z,8.40
2022-09-22T02:56:15.534Z,8.40
2022-09-22T02:58:42.254Z,8.30
2022-09-22T03:01:09.019Z,8.30
2022-09-22T03:03:35.934Z,8.30
2022-09-22T03:06:02.581Z,8.30
2022-09-22T03:08:29.329Z,8.20
2022-09-22T03:10:55.965Z,8.20
2022-09-22T03:13:23.221Z,8.20
2022-09-22T03:15:50.972Z,8.20
2022-09-22T03:18:17.946Z,8.10
2022-09-22T03:20:45.219Z,8.00
2022-09-22T03:23:11.915Z,8.00
2022-09-22T03:25:38.645Z,8.00
2022-09-22T03:28:05.388Z,8.00
2022-09-22T03:30:32.390Z,7.90
2022-09-22T03:32:59.147Z,8.00
2022-09-22T03:35:26.132Z,7.90
2022-09-22T03:37:52.972Z,7.90
2022-09-22T03:40:19.813Z,7.90
2022-09-22T03:42:46.703Z,7.90
2022-09-22T03:45:14.902Z,7.90
2022-09-22T03:47:41.570Z,7.90
2022-09-22T03:50:09.879Z,7.90
2022-09-22T03:52:36.610Z,7.80
2022-09-22T03:55:03.405Z,7.80
2022-09-22T03:57:30.702Z,7.80
2022-09-22T03:59:57.440Z,7.80
2022-09-22T04:02:24.330Z,7.70
2022-09-22T04:04:51.260Z,7.70
2022-09-22T04:07:18.026Z,7.70
2022-09-22T04:09:44.905Z,7.70
2022-09-22T04:12:11.836Z,7.70
2022-09-22T04:14:38.908Z,7.70
2022-09-22T04:17:05.905Z,7.70
2022-09-22T04:19:35.610Z,7.70
2022-09-22T04:22:03.953Z,7.70
2022-09-22T04:24:31.229Z,7.60
2022-09-22T04:29:44.778Z,7.60
2022-09-22T04:32:11.506Z,7.60
2022-09-22T04:34:38.313Z,7.60
2022-09-22T04:37:05.156Z,7.60
2022-09-22T04:39:31.968Z,7.60
2022-09-22T04:41:58.738Z,7.60
2022-09-22T04:44:25.523Z,7.50
2022-09-22T04:46:52.297Z,7.60
2022-09-22T04:49:19.088Z,7.60
2022-09-22T04:51:45.809Z,7.60
2022-09-22T04:54:14.069Z,7.60
2022-09-22T04:56:42.703Z,7.60
2022-09-22T04:59:09.416Z,7.50
2022-09-22T05:01:36.227Z,7.60
2022-09-22T05:04:03.076Z,7.50
2022-09-22T05:06:29.806Z,7.60
2022-09-22T05:08:56.736Z,7.60
2022-09-22T05:11:23.671Z,7.60
2022-09-22T05:13:50.957Z,7.60
2022-09-22T05:16:18.417Z,7.60
2022-09-22T05:18:45.404Z,7.60
2022-09-22T05:21:12.364Z,7.50
2022-09-22T05:23:39.889Z,7.50
2022-09-22T05:26:06.892Z,7.50
2022-09-22T05:28:33.652Z,7.50
2022-09-22T05:31:00.787Z,7.50
2022-09-22T05:33:27.672Z,7.40
2022-09-22T05:35:54.560Z,7.40
2022-09-22T05:38:21.391Z,7.50
2022-09-22T05:40:48.195Z,7.40
2022-09-22T05:43:15.713Z,7.40
2022-09-22T05:45:43.933Z,7.50
2022-09-22T05:48:11.072Z,7.40
2022-09-22T05:50:38.107Z,7.50
2022-09-22T05:53:10.287Z,7.50
2022-09-22T05:55:38.891Z,7.50
2022-09-22T05:58:05.766Z,7.60
2022-09-22T06:00:33.034Z,7.60
2022-09-22T06:02:59.875Z,7.60
2022-09-22T06:05:26.908Z,7.70
2022-09-22T06:08:03.261Z,7.70
2022-09-22T06:10:31.683Z,7.80
2022-09-22T06:13:00.129Z,7.80
2022-09-22T06:15:27.879Z,7.80
2022-09-22T06:17:56.140Z,7.90
2022-09-22T06:20:24.102Z,7.90
2022-09-22T06:22:50.977Z,8.00
2022-09-22T06:25:17.928Z,8.00
2022-09-22T06:27:45.015Z,8.00
2022-09-22T06:30:12.643Z,8.10
2022-09-22T06:32:39.796Z,8.10
2022-09-22T06:35:07.985Z,8.20
2022-09-22T06:37:38.426Z,8.30
2022-09-22T06:40:08.385Z,8.30
2022-09-22T06:42:36.105Z,8.30
2022-09-22T06:45:04.756Z,8.40
2022-09-22T06:47:32.897Z,8.40
2022-09-22T06:50:02.281Z,8.50
2022-09-22T06:52:29.130Z,8.50
2022-09-22T06:55:00.874Z,8.50
2022-09-22T06:57:32.772Z,8.60
2022-09-22T07:00:00.994Z,8.70
2022-09-22T07:02:29.547Z,8.80
2022-09-22T07:04:59.100Z,8.80
2022-09-22T07:07:31.112Z,8.90
2022-09-22T07:09:58.368Z,9.00
2022-09-22T07:12:26.382Z,9.00
2022-09-22T07:14:56.426Z,9.10
2022-09-22T07:17:23.692Z,9.20
2022-09-22T07:19:52.018Z,9.30
2022-09-22T07:22:19.144Z,9.40
2022-09-22T07:24:46.135Z,9.40
2022-09-22T07:27:14.591Z,9.60
2022-09-22T07:29:42.793Z,9.60
2022-09-22T07:32:10.825Z,9.70
2022-09-22T07:34:37.643Z,9.70
2022-09-22T07:37:04.495Z,9.70
2022-09-22T07:39:31.624Z,9.80
2022-09-22T07:41:58.631Z,9.80
2022-09-22T07:44:44.764Z,9.80
2022-09-22T07:47:11.926Z,9.90
2022-09-22T07:49:38.708Z,10.00
2022-09-22T07:52:05.476Z,10.10
2022-09-22T07:54:34.673Z,10.10
2022-09-22T07:57:06.635Z,10.20
2022-09-22T07:59:33.767Z,10.30
2022-09-22T08:02:01.222Z,10.40
2022-09-22T08:04:31.837Z,10.40
2022-09-22T08:06:58.621Z,10.60
2022-09-22T08:09:25.816Z,10.60
2022-09-22T08:11:53.507Z,10.80
2022-09-22T08:14:23.721Z,10.90
2022-09-22T08:16:51.977Z,11.00
2022-09-22T08:19:21.000Z,11.20
2022-09-22T08:21:50.147Z,11.40
2022-09-22T08:24:22.950Z,11.40
2022-09-22T08:26:52.939Z,11.60
2022-09-22T08:29:20.319Z,11.60
2022-09-22T08:31:47.860Z,11.70
2022-09-22T08:34:18.574Z,11.80
2022-09-22T08:36:49.178Z,11.90
2022-09-22T08:39:17.851Z,12.00
2022-09-22T08:41:44.549Z,12.10
2022-09-22T08:44:11.164Z,12.20
2022-09-22T08:46:45.740Z,12.30
2022-09-22T08:49:37.153Z,12.50
2022-09-22T08:52:18.277Z,12.60
2022-09-22T08:54:48.148Z,12.80
2022-09-22T08:57:27.471Z,12.90
2022-09-22T09:00:17.269Z,13.00
2022-09-22T09:03:23.645Z,13.20
2022-09-22T09:06:05.104Z,13.40
2022-09-22T09:08:52.104Z,13.60
2022-09-22T09:11:28.057Z,13.70
2022-09-22T09:14:13.616Z,13.80
2022-09-22T09:17:05.799Z,14.00
2022-09-22T09:19:43.645Z,14.10
2022-09-22T09:22:27.567Z,14.20
2022-09-22T09:27:49.722Z,14.40
2022-09-22T09:30:19.196Z,14.50
2022-09-22T09:32:51.354Z,14.60
2022-09-22T09:35:26.875Z,14.80
2022-09-22T09:38:01.215Z,14.90
2022-09-22T09:40:28.113Z,15.10
2022-09-22T09:43:04.214Z,15.10
2022-09-22T09:45:57.631Z,15.30
2022-09-22T09:48:33.848Z,15.30
2022-09-22T09:51:05.214Z,15.50
2022-09-22T09:53:52.396Z,15.50
2022-09-22T09:56:30.063Z,15.60
2022-09-22T09:59:19.871Z,15.60
2022-09-22T10:01:50.756Z,15.80
2022-09-22T10:04:27.979Z,15.80
2022-09-22T10:07:09.797Z,16.00
2022-09-22T10:09:37.075Z,16.00
2022-09-22T10:12:04.462Z,16.10
2022-09-22T10:14:35.126Z,16.10
2022-09-22T10:17:03.861Z,16.00
2022-09-22T10:19:34.514Z,16.10
2022-09-22T10:22:24.330Z,16.10
2022-09-22T10:25:02.062Z,16.20
2022-09-22T10:27:30.849Z,16.40
2022-09-22T10:30:21.393Z,16.60
2022-09-22T10:33:03.708Z,16.70
2022-09-22T10:35:32.919Z,16.70
2022-09-22T10:38:23.933Z,16.50
2022-09-22T10:40:58.276Z,16.40
2022-09-22T10:43:47.005Z,16.40
2022-09-22T10:46:42.163Z,16.40
2022-09-22T10:49:14.493Z,16.80
2022-09-22T10:52:00.100Z,17.10
2022-09-22T10:54:42.890Z,17.30
2022-09-22T10:57:42.610Z,17.70
2022-09-22T11:00:23.774Z,17.80
2022-09-22T11:03:34.032Z,17.90
2022-09-22T11:06:46.264Z,17.70
2022-09-22T11:09:31.782Z,17.50
2022-09-22T11:12:25.134Z,17.40
2022-09-22T11:15:23.185Z,17.40
2022-09-22T11:18:19.004Z,17.90
2022-09-22T11:20:51.178Z,18.20
2022-09-22T11:23:36.091Z,18.00
2022-09-22T11:26:36.786Z,17.90
2022-09-22T11:29:09.554Z,17.90
2022-09-22T11:31:59.993Z,18.30
2022-09-22T11:34:51.556Z,18.50
2022-09-22T11:37:40.156Z,18.40
2022-09-22T11:40:47.186Z,18.30
2022-09-22T11:43:38.552Z,18.50
2022-09-22T11:46:31.978Z,18.50
2022-09-22T11:49:30.851Z,18.50
2022-09-22T11:52:17.609Z,18.60
2022-09-22T11:55:03.752Z,18.60
2022-09-22T11:57:34.819Z,18.50
2022-09-22T12:00:19.105Z,18.30
2022-09-22T12:02:53.063Z,18.30
2022-09-22T12:05:30.555Z,18.50
2022-09-22T12:08:00.240Z,18.60
2022-09-22T12:10:39.913Z,18.80
2022-09-22T12:13:21.962Z,19.00
2022-09-22T12:16:18.510Z,19.30
2022-09-22T12:18:48.565Z,19.50
2022-09-22T12:21:42.052Z,19.60
2022-09-22T12:24:11.217Z,19.70
2022-09-22T12:26:44.338Z,19.70
2022-09-22T12:29:14.383Z,19.90
2022-09-22T12:31:44.960Z,19.90
2022-09-22T12:34:39.787Z,20.00
2022-09-22T12:37:13.161Z,20.10
2022-09-22T12:39:46.559Z,20.40
2022-09-22T12:42:40.540Z,20.50
2022-09-22T12:45:37.135Z,20.70
2022-09-22T12:48:22.326Z,21.00
2022-09-22T12:50:49.841Z,21.20
2022-09-22T12:53:22.314Z,21.30
2022-09-22T12:55:50.277Z,21.50
2022-09-22T12:58:23.575Z,21.70
2022-09-22T13:00:56.302Z,21.50
2022-09-22T13:03:27.225Z,21.40
2022-09-22T13:05:57.172Z,21.70
2022-09-22T13:08:27.998Z,21.80
2022-09-22T13:11:04.017Z,21.80
2022-09-22T13:13:43.700Z,22.00
2022-09-22T13:16:16.487Z,22.20
2022-09-22T13:18:57.261Z,22.50
2022-09-22T13:21:29.939Z,22.60
2022-09-22T13:24:00.565Z,22.80
2022-09-22T13:26:29.160Z,22.40
2022-09-22T13:29:01.993Z,22.10
2022-09-22T13:31:35.081Z,21.80
2022-09-22T13:34:17.818Z,21.70
2022-09-22T13:36:45.390Z,22.10
2022-09-22T13:39:15.783Z,22.50
2022-09-22T13:41:48.138Z,22.80
2022-09-22T13:44:18.437Z,23.10
2022-09-22T13:46:47.738Z,23.10
2022-09-22T13:49:38.985Z,22.80
2022-09-22T13:52:08.646Z,23.00
2022-09-22T13:54:37.386Z,22.80
2022-09-22T13:57:07.689Z,22.70
2022-09-22T13:59:41.087Z,22.50
2022-09-22T14:02:11.785Z,22.30
2022-09-22T14:04:47.517Z,22.10
2022-09-22T14:07:14.638Z,22.70
2022-09-22T14:09:41.743Z,23.10
2022-09-22T14:12:10.202Z,22.90
2022-09-22T14:14:38.047Z,22.70
2022-09-22T14:17:24.586Z,23.10
2022-09-22T14:20:05.938Z,23.50
2022-09-22T14:22:40.265Z,23.20
2022-09-22T14:25:18.880Z,23.10
2022-09-22T14:27:55.316Z,23.00
2022-09-22T14:30:30.283Z,22.90
2022-09-22T14:32:58.346Z,22.90
2022-09-22T14:35:33.451Z,22.90
2022-09-22T14:38:13.907Z,22.80
2022-09-22T14:40:54.602Z,22.80
2022-09-22T14:43:24.603Z,22.80
2022-09-22T14:46:00.616Z,22.70
2022-09-22T14:48:32.997Z,22.80
2022-09-22T14:51:12.264Z,22.00
2022-09-22T14:53:41.651Z,22.20
2022-09-22T14:56:15.076Z,22.10
2022-09-22T14:58:44.050Z,21.90
2022-09-22T15:01:45.185Z,21.90
2022-09-22T15:04:15.086Z,21.70
2022-09-22T15:06:42.825Z,21.50
2022-09-22T15:09:31.660Z,21.50
2022-09-22T15:12:01.860Z,20.90
2022-09-22T15:14:34.360Z,20.70
2022-09-22T15:17:24.079Z,20.50
2022-09-22T15:19:53.795Z,20.80
2022-09-22T15:22:20.548Z,21.00
2022-09-22T15:24:47.325Z,21.00
2022-09-22T15:27:18.213Z,20.90
2022-09-22T15:29:56.349Z,20.50
2022-09-22T15:32:23.242Z,20.20
2022-09-22T15:34:50.443Z,20.40
2022-09-22T15:37:22.167Z,20.50
2022-09-22T15:39:49.141Z,20.70
2022-09-22T15:42:36.066Z,20.70
2022-09-22T15:45:04.514Z,20.70
2022-09-22T15:47:31.266Z,21.00
2022-09-22T15:50:00.430Z,20.70
2022-09-22T15:52:27.151Z,20.70
2022-09-22T15:54:55.157Z,20.90
2022-09-22T15:57:21.958Z,20.90
2022-09-22T15:59:49.316Z,20.90
2022-09-22T16:02:17.280Z,20.90
2022-09-22T16:04:44.414Z,20.80
2022-09-22T16:07:13.719Z,20.80
2022-09-22T16:09:40.532Z,20.60
2022-09-22T16:12:10.849Z,20.50
2022-09-22T16:14:39.473Z,20.40
2022-09-22T16:17:08.861Z,20.40
2022-09-22T16:19:35.574Z,20.20
2022-09-22T16:22:02.730Z,20.10
2022-09-22T16:24:31.836Z,19.90
2022-09-22T16:26:59.635Z,19.80
2022-09-22T16:29:26.916Z,19.60
2022-09-22T16:32:01.060Z,19.40
2022-09-22T16:34:29.175Z,19.30
2022-09-22T16:36:55.891Z,19.40
2022-09-22T16:39:22.947Z,19.40
2022-09-22T16:41:49.805Z,19.30
2022-09-22T16:44:16.549Z,19.00
2022-09-22T16:46:43.438Z,18.70
2022-09-22T16:49:13.132Z,18.70
2022-09-22T16:51:41.887Z,18.50
2022-09-22T16:54:13.684Z,18.50
2022-09-22T16:56:43.549Z,18.30
2022-09-22T16:59:10.741Z,18.20
2022-09-22T17:01:38.481Z,18.10
2022-09-22T17:04:06.996Z,18.00
2022-09-22T17:06:36.017Z,17.80
2022-09-22T17:09:02.784Z,17.80
2022-09-22T17:11:34.523Z,17.70
2022-09-22T17:14:04.618Z,17.60
2022-09-22T17:16:35.354Z,17.50
2022-09-22T17:19:11.353Z,17.40
2022-09-22T17:21:40.084Z,17.30
2022-09-22T17:24:09.279Z,17.30
2022-09-22T17:26:47.758Z,17.20
2022-09-22T17:29:20.954Z,17.00
2022-09-22T17:31:48.096Z,16.90
2022-09-22T17:34:15.390Z,16.80
2022-09-22T17:36:42.150Z,16.70
2022-09-22T17:39:10.584Z,16.60
2022-09-22T17:41:44.348Z,16.50
2022-09-22T17:44:14.634Z,16.40
2022-09-22T17:47:01.271Z,16.40
2022-09-22T17:49:47.248Z,16.20
2022-09-22T17:52:34.493Z,16.20
2022-09-22T17:55:10.849Z,16.10
2022-09-22T17:57:42.593Z,16.00
2022-09-22T18:00:12.320Z,15.90
2022-09-22T18:02:39.452Z,15.70
2022-09-22T18:05:09.281Z,15.60
2022-09-22T18:07:38.134Z,15.50
2022-09-22T18:10:06.763Z,15.40
2022-09-22T18:12:34.254Z,15.30
2022-09-22T18:15:04.055Z,15.30
2022-09-22T18:17:41.468Z,15.10
2022-09-22T18:20:19.277Z,15.10
2022-09-22T18:22:47.895Z,14.90
2022-09-22T18:25:16.568Z,14.90
2022-09-22T18:27:44.154Z,14.80
2022-09-22T18:30:15.397Z,14.80
2022-09-22T18:32:42.908Z,14.70
2022-09-22T18:35:09.796Z,14.60
2022-09-22T18:37:36.649Z,14.60
2022-09-22T18:40:06.066Z,14.50
2022-09-22T18:42:34.548Z,14.50
2022-09-22T18:45:01.298Z,14.50
2022-09-22T18:47:28.112Z,14.40
2022-09-22T18:49:56.411Z,14.30
2022-09-22T18:52:24.719Z,14.30
2022-09-22T18:54:53.857Z,14.30
2022-09-22T18:57:22.564Z,14.30
2022-09-22T18:59:51.163Z,14.30
2022-09-22T19:02:22.543Z,14.20
2022-09-22T19:04:51.199Z,14.20
2022-09-22T19:07:41.543Z,14.20
2022-09-22T19:10:11.361Z,14.10
2022-09-22T19:12:41.498Z,14.10
2022-09-22T19:15:13.310Z,14.10
2022-09-22T19:17:43.857Z,14.00
2022-09-22T19:20:15.662Z,14.00
2022-09-22T19:22:42.696Z,13.90
2022-09-22T19:25:10.903Z,13.90
2022-09-22T19:27:39.719Z,13.80
2022-09-22T19:30:08.223Z,13.80
2022-09-22T19:32:35.281Z,13.70
2022-09-22T19:35:02.217Z,13.70
2022-09-22T19:37:29.302Z,13.60
2022-09-22T19:39:56.512Z,13.60
2022-09-22T19:42:23.679Z,13.50
2022-09-22T19:44:50.590Z,13.50
2022-09-22T19:47:17.379Z,13.50
2022-09-22T19:49:44.205Z,13.40
2022-09-22T19:52:13.257Z,13.40
2022-09-22T19:54:40.686Z,13.40
2022-09-22T19:57:07.498Z,13.40
2022-09-22T19:59:34.665Z,13.40
2022-09-22T20:02:03.713Z,13.40
2022-09-22T20:04:34.296Z,13.50
2022-09-22T20:07:01.526Z,13.40
2022-09-22T20:09:28.397Z,13.40
2022-09-22T20:11:55.544Z,13.40
2022-09-22T20:14:22.620Z,13.40
2022-09-22T20:17:07.242Z,13.30
2022-09-22T20:19:36.886Z,13.30
2022-09-22T20:22:13.301Z,13.30
2022-09-22T20:24:40.602Z,13.20
2022-09-22T20:27:08.206Z,13.20
2022-09-22T20:29:35.084Z,13.10
2022-09-22T20:32:02.411Z,13.10
2022-09-22T20:34:29.759Z,13.00
2022-09-22T20:36:56.596Z,13.00
2022-09-22T20:39:23.574Z,13.00
2022-09-22T20:41:50.676Z,13.00
2022-09-22T20:44:17.441Z,12.90
2022-09-22T20:46:47.791Z,13.00
2022-09-22T20:49:14.990Z,13.00
2022-09-22T20:51:42.405Z,12.80
2022-09-22T20:54:09.520Z,12.80
2022-09-22T20:56:39.547Z,12.80
2022-09-22T20:59:09.631Z,12.70
2022-09-22T21:01:36.886Z,12.70
2022-09-22T21:04:03.764Z,12.60
2022-09-22T21:06:31.132Z,12.60
2022-09-22T21:09:16.820Z,12.50
2022-09-22T21:11:44.090Z,12.50
2022-09-22T21:14:11.178Z,12.50
2022-09-22T21:16:39.872Z,12.50
2022-09-22T21:19:07.736Z,12.40
2022-09-22T21:21:38.392Z,12.50
2022-09-22T21:24:05.603Z,12.50
2022-09-22T21:26:33.332Z,12.40
2022-09-22T21:29:00.758Z,12.40
2022-09-22T21:31:28.243Z,12.40
2022-09-22T21:33:55.549Z,12.40
2022-09-22T21:36:23.849Z,12.40
2022-09-22T21:38:55.847Z,12.30
2022-09-22T21:41:24.870Z,12.30
2022-09-22T21:43:53.429Z,12.30
2022-09-22T21:46:26.434Z,12.30
2022-09-22T21:49:01.847Z,12.30
2022-09-22T21:51:31.053Z,12.20
2022-09-22T21:53:57.867Z,12.20
2022-09-22T21:56:25.840Z,12.20
2022-09-22T21:58:54.272Z,12.20
2022-09-22T22:01:23.991Z,12.20
2022-09-22T22:03:53.315Z,12.20
2022-09-22T22:06:20.230Z,12.20
2022-09-22T22:08:51.819Z,12.20
2022-09-22T22:11:22.144Z,12.20
2022-09-22T22:13:57.066Z,12.20
2022-09-22T22:16:26.876Z,12.10
2022-09-22T22:18:53.732Z,12.10
2022-09-22T22:21:23.239Z,12.10
2022-09-22T22:23:55.241Z,12.00
2022-09-22T22:26:25.309Z,12.10
2022-09-22T22:28:53.347Z,12.00
2022-09-22T22:31:22.618Z,11.90
2022-09-22T22:33:49.988Z,11.90
2022-09-22T22:36:18.683Z,11.90
2022-09-22T22:38:45.753Z,11.80
2022-09-22T22:41:15.174Z,11.80
2022-09-22T22:43:42.995Z,11.80
2022-09-22T22:46:12.614Z,11.80
2022-09-22T22:48:39.521Z,11.80
2022-09-22T22:51:14.433Z,11.80
2022-09-22T22:53:42.221Z,11.80
2022-09-22T22:56:17.648Z,11.80
2022-09-22T22:58:45.992Z,11.80
2022-09-22T23:01:16.858Z,11.80
2022-09-22T23:03:47.724Z,11.70
2022-09-22T23:06:19.017Z,11.80
2022-09-22T23:08:46.188Z,11.70
2022-09-22T23:11:16.770Z,11.70
2022-09-22T23:13:51.485Z,11.70
2022-09-22T23:16:25.180Z,11.60
2022-09-22T23:18:54.566Z,11.60
2022-09-22T23:21:21.852Z,11.60
2022-09-22T23:23:50.282Z,11.60
2022-09-22T23:26:17.716Z,11.60
2022-09-22T23:28:45.397Z,11.60
2022-09-22T23:31:18.209Z,11.50
2022-09-22T23:33:47.067Z,11.50
2022-09-22T23:36:22.918Z,11.50
2022-09-22T23:39:03.286Z,11.50
2022-09-22T23:41:34.753Z,11.50
2022-09-22T23:44:02.776Z,11.50
2022-09-22T23:46:29.817Z,11.50
2022-09-22T23:48:56.719Z,11.50
2022-09-22T23:51:24.055Z,11.50
2022-09-22T23:53:50.932Z,11.50
2022-09-22T23:56:17.750Z,11.50
2022-09-22T23:58:45.354Z,11.60
